Time;durP1;ratioP1;P1;durP2;ratioP2;P2;SDS_P1;SDS_P2;PMS_P1;PMS_P2;Temp;Humidity;BMP_temperature;BMP_pressure;BME280_temperature;BME280_humidity;BME280_pressure;Samples;Min_cycle;Max_cycle;Signal;HPM_P1;HPM_P2
2022/08/15 00:02:08;;;;;;;18.88;15.43;;;;;;;23.74;71.37;99737.41;5051053;28;20465;-76
2022/08/15 00:04:35;;;;;;;25.05;16.48;;;;;;;23.74;71.88;99731.06;5052649;28;20040;-75
2022/08/15 00:07:02;;;;;;;29.42;17.02;;;;;;;23.66;71.68;99728.66;5053053;28;20033;-76
2022/08/15 00:09:28;;;;;;;20.00;16.75;;;;;;;23.64;71.77;99715.13;5054311;28;20037;-78
2022/08/15 00:11:57;;;;;;;27.63;18.83;;;;;;;23.63;71.87;99721.72;5053211;28;20090;-78
2022/08/15 00:14:28;;;;;;;25.42;17.58;;;;;;;23.61;72.15;99714.75;5054339;28;20033;-78
2022/08/15 00:16:54;;;;;;;19.90;17.53;;;;;;;23.58;72.54;99712.47;5053237;28;20032;-76
2022/08/15 00:19:24;;;;;;;29.08;18.10;;;;;;;23.62;72.17;99709.03;5053091;28;20033;-76
2022/08/15 00:21:54;;;;;;;26.15;18.13;;;;;;;23.63;72.52;99691.50;5054196;28;20490;-76
2022/08/15 00:24:25;;;;;;;20.88;16.92;;;;;;;23.60;72.36;99691.97;5054187;28;20036;-76
2022/08/15 00:26:52;;;;;;;21.88;16.30;;;;;;;23.66;72.15;99690.19;5053938;28;20112;-76
2022/08/15 00:29:19;;;;;;;20.60;16.73;;;;;;;23.69;72.30;99689.75;5054133;28;20468;-78
2022/08/15 00:31:45;;;;;;;25.27;17.50;;;;;;;23.64;71.89;99684.94;5052605;28;20036;-76
2022/08/15 00:34:12;;;;;;;21.10;16.23;;;;;;;23.58;72.21;99699.59;5053995;28;20025;-76
2022/08/15 00:36:39;;;;;;;21.80;16.60;;;;;;;23.63;72.22;99696.16;5052998;28;20067;-75
2022/08/15 00:39:07;;;;;;;20.92;17.52;;;;;;;23.64;72.17;99693.16;5053955;28;20078;-76
2022/08/15 00:41:39;;;;;;;26.35;19.40;;;;;;;23.65;71.82;99689.38;5053530;28;20033;-76
2022/08/15 00:44:12;;;;;;;28.55;20.88;;;;;;;23.72;71.86;99694.78;5053810;28;20478;-76
2022/08/15 00:46:39;;;;;;;29.33;21.20;;;;;;;23.69;71.82;99685.09;5048738;28;20049;-77
2022/08/15 00:49:05;;;;;;;27.92;21.73;;;;;;;23.68;71.77;99690.81;5052579;28;20036;-77
2022/08/15 00:51:42;;;;;;;28.40;21.65;;;;;;;23.67;71.82;99680.88;5052217;28;20025;-76
2022/08/15 00:54:17;;;;;;;29.50;20.90;;;;;;;23.68;71.68;99693.53;5052397;28;20032;-77
2022/08/15 00:56:47;;;;;;;24.70;19.98;;;;;;;23.70;71.89;99696.88;5053502;28;20170;-77
2022/08/15 00:59:16;;;;;;;25.65;19.33;;;;;;;23.66;71.84;99685.56;5053712;28;20413;-76
2022/08/15 01:01:42;;;;;;;27.73;20.40;;;;;;;23.70;71.43;99697.72;5035876;28;20036;-77
2022/08/15 01:04:12;;;;;;;25.58;20.02;;;;;;;23.80;71.20;99709.00;5053296;28;20025;-76
2022/08/15 01:06:38;;;;;;;29.77;21.50;;;;;;;23.78;70.93;99699.31;5053295;28;20056;-76
2022/08/15 01:09:06;;;;;;;28.15;23.10;;;;;;;23.85;71.00;99717.38;5051854;28;20551;-76
2022/08/15 01:11:36;;;;;;;31.75;24.52;;;;;;;23.79;70.86;99722.97;5035834;28;20116;-77
2022/08/15 01:14:06;;;;;;;34.42;23.83;;;;;;;23.70;71.34;99713.34;5053177;28;20063;-77
2022/08/15 01:16:34;;;;;;;31.50;22.52;;;;;;;23.72;71.36;99728.56;5051975;28;20053;-77
2022/08/15 01:19:04;;;;;;;28.65;21.67;;;;;;;23.60;71.72;99721.34;5053176;28;20025;-77
2022/08/15 01:21:40;;;;;;;30.08;20.08;;;;;;;23.62;71.82;99720.03;5051960;28;20031;-77
2022/08/15 01:24:07;;;;;;;46.83;27.48;;;;;;;23.68;71.70;99732.81;5053177;28;20025;-77
2022/08/15 01:26:33;;;;;;;28.15;20.75;;;;;;;23.62;71.69;99725.50;5052968;28;20040;-77
2022/08/15 01:29:00;;;;;;;28.58;21.77;;;;;;;23.66;71.41;99737.72;5052910;28;20032;-77
2022/08/15 01:31:26;;;;;;;25.63;18.88;;;;;;;23.64;71.49;99726.13;5051936;28;20041;-77
2022/08/15 01:33:57;;;;;;;24.60;19.73;;;;;;;23.69;71.32;99728.19;5051548;28;20064;-77
2022/08/15 01:36:27;;;;;;;28.73;18.47;;;;;;;23.69;71.33;99730.94;5052852;28;20025;-77
2022/08/15 01:39:05;;;;;;;20.50;17.55;;;;;;;23.75;71.16;99736.34;5051742;28;20037;-77
2022/08/15 01:41:57;;;;;;;27.13;18.30;;;;;;;23.77;71.28;99728.69;5052672;28;20486;-77
2022/08/15 01:44:33;;;;;;;22.08;18.67;;;;;;;23.74;70.92;99731.06;5051760;28;20033;-77
2022/08/15 01:47:07;;;;;;;24.23;17.85;;;;;;;23.76;71.00;99734.41;5051299;28;20049;-77
2022/08/15 01:49:39;;;;;;;21.45;17.45;;;;;;;23.71;71.53;99732.38;5052498;28;20047;-77
2022/08/15 01:52:06;;;;;;;29.90;19.08;;;;;;;23.75;71.33;99727.25;5052610;28;20041;-77
2022/08/15 01:54:37;;;;;;;21.70;18.98;;;;;;;23.72;71.08;99728.56;5052628;28;20378;-77
2022/08/15 01:57:05;;;;;;;23.17;18.40;;;;;;;23.78;71.19;99727.63;5052438;28;20029;-77
2022/08/15 01:59:32;;;;;;;27.55;20.48;;;;;;;23.80;70.93;99725.47;5034496;28;20279;-77
2022/08/15 02:02:04;;;;;;;27.92;22.23;;;;;;;23.85;70.89;99738.53;5050898;28;20036;-77
2022/08/15 02:04:31;;;;;;;;;;;;;;;23.82;70.94;99739.00;5052316;28;20055;-77
2022/08/15 02:07:00;;;;;;;28.75;22.98;;;;;;;23.79;71.08;99739.47;5051971;28;20007;-77
2022/08/15 02:09:26;;;;;;;36.17;24.90;;;;;;;23.70;71.03;99738.06;5050933;28;20083;-77
2022/08/15 02:11:57;;;;;;;30.73;23.50;;;;;;;23.72;71.47;99746.94;5050970;28;20482;-77
2022/08/15 02:14:22;;;;;;;29.45;22.98;;;;;;;23.73;71.66;99746.69;5052146;28;20032;-77
2022/08/15 02:16:50;;;;;;;27.27;21.25;;;;;;;23.61;71.67;99726.56;5051000;28;20107;-77
2022/08/15 02:19:16;;;;;;;28.73;20.35;;;;;;;23.75;71.60;99741.81;5052049;28;20036;-77
2022/08/15 02:21:46;;;;;;;27.67;20.80;;;;;;;23.69;72.02;99748.25;5051884;28;20100;-77
2022/08/15 02:24:17;;;;;;;25.67;20.13;;;;;;;23.63;71.77;99746.41;5051851;28;20029;-77
2022/08/15 02:26:44;;;;;;;23.17;19.80;;;;;;;23.64;71.71;99748.06;5051665;28;20500;-77
2022/08/15 02:29:09;;;;;;;27.35;19.95;;;;;;;23.68;72.01;99753.94;5034332;28;20102;-77
2022/08/15 02:31:36;;;;;;;26.52;19.02;;;;;;;23.54;72.18;99742.31;5051729;28;20073;-76
2022/08/15 02:34:04;;;;;;;25.92;19.75;;;;;;;23.53;72.46;99756.25;5050719;28;20035;-77
2022/08/15 02:36:32;;;;;;;23.83;19.95;;;;;;;23.57;72.28;99757.47;5050763;28;20025;-77
2022/08/15 02:39:01;;;;;;;21.95;19.13;;;;;;;23.56;72.47;99753.91;5051511;28;20067;-77
2022/08/15 02:41:34;;;;;;;23.80;18.90;;;;;;;23.49;72.59;99747.63;5051769;28;20464;-77
2022/08/15 02:44:01;;;;;;;20.92;18.08;;;;;;;23.46;72.91;99745.34;5052490;28;20029;-86
2022/08/15 02:46:29;;;;;;;20.55;18.17;;;;;;;23.41;72.56;99745.22;5051234;28;20422;-77
2022/08/15 02:48:58;;;;;;;25.38;18.75;;;;;;;23.47;72.71;99751.69;5050655;28;20124;-78
2022/08/15 02:51:25;;;;;;;20.67;18.25;;;;;;;23.46;72.84;99756.31;5050675;28;20060;-77
2022/08/15 02:53:52;;;;;;;27.35;18.55;;;;;;;23.45;72.93;99760.16;5051604;28;20421;-78
2022/08/15 02:56:22;;;;;;;24.90;19.60;;;;;;;23.43;73.24;99762.28;5051580;28;20452;-78
2022/08/15 02:58:49;;;;;;;24.10;19.70;;;;;;;23.42;72.79;99757.03;5050335;28;20033;-78
2022/08/15 03:01:19;;;;;;;21.05;18.48;;;;;;;23.45;73.36;99757.41;5050200;28;20033;-77
2022/08/15 03:03:49;;;;;;;23.50;19.05;;;;;;;23.46;72.78;99766.47;5051512;28;20036;-77
2022/08/15 03:06:19;;;;;;;21.42;19.08;;;;;;;23.45;73.09;99775.78;5033746;28;20068;-77
2022/08/15 03:08:45;;;;;;;28.27;19.90;;;;;;;23.44;73.16;99757.63;5051173;28;20124;-77
2022/08/15 03:11:12;;;;;;;26.33;19.70;;;;;;;23.51;73.07;99770.22;5051529;28;20048;-77
2022/08/15 03:13:40;;;;;;;27.17;20.33;;;;;;;23.51;72.81;99764.72;5050199;28;20033;-77
2022/08/15 03:16:07;;;;;;;31.10;19.10;;;;;;;23.44;72.95;99761.22;5051305;28;20037;-77
2022/08/15 03:18:36;;;;;;;26.27;18.33;;;;;;;23.46;73.15;99777.44;5051430;28;20036;-78
2022/08/15 03:21:08;;;;;;;25.42;20.65;;;;;;;23.49;73.13;99772.34;5051470;28;20423;-78
2022/08/15 03:23:34;;;;;;;32.55;22.00;;;;;;;23.44;73.48;99780.44;5051163;28;20064;-78
2022/08/15 03:26:02;;;;;;;22.45;20.05;;;;;;;23.48;73.17;99781.66;5049891;28;20464;-78
2022/08/15 03:28:31;;;;;;;28.90;19.85;;;;;;;23.35;73.19;99765.31;5049795;28;20029;-77
2022/08/15 03:31:00;;;;;;;25.25;20.88;;;;;;;23.43;73.37;99781.50;5051052;28;20029;-78
2022/08/15 03:33:27;;;;;;;24.65;21.92;;;;;;;23.34;73.47;99791.06;5049679;28;20044;-78
2022/08/15 03:35:54;;;;;;;28.48;21.85;;;;;;;23.39;73.68;99782.16;5050971;28;20398;-78
2022/08/15 03:38:19;;;;;;;28.02;22.88;;;;;;;23.41;73.59;99783.63;5051089;28;20154;-78
2022/08/15 03:40:47;;;;;;;29.80;23.75;;;;;;;23.48;73.38;99787.16;5054602;28;20119;-78
2022/08/15 03:43:26;;;;;;;30.33;25.50;;;;;;;23.48;73.51;99776.16;5053406;28;20111;-77
2022/08/15 03:45:57;;;;;;;26.73;23.42;;;;;;;23.49;73.70;99774.25;5053624;28;20041;-78
2022/08/15 03:48:24;;;;;;;39.25;25.35;;;;;;;23.46;73.74;99778.28;5055017;28;20057;-77
2022/08/15 03:50:52;;;;;;;31.65;25.02;;;;;;;23.42;73.97;99771.59;5054828;28;20063;-77
2022/08/15 03:53:19;;;;;;;35.72;26.40;;;;;;;23.48;73.78;99765.19;5054569;28;20033;-77
2022/08/15 03:55:45;;;;;;;34.97;26.92;;;;;;;23.43;73.92;99764.19;5054284;28;20029;-77
2022/08/15 03:58:11;;;;;;;33.72;25.67;;;;;;;23.41;74.34;99764.41;5054884;28;20731;-77
2022/08/15 04:00:44;;;;;;;42.17;27.30;;;;;;;23.37;74.34;99762.31;5037125;28;20502;-77
2022/08/15 04:03:13;;;;;;;;;;;;;;;23.33;74.51;99772.09;5055078;28;20024;-77
2022/08/15 04:05:42;;;;;;;36.25;27.25;;;;;;;23.35;74.73;99779.03;5069795;28;20007;-77
2022/08/15 04:08:11;;;;;;;34.88;25.00;;;;;;;23.31;75.09;99775.91;5054455;28;20447;-77
2022/08/15 04:10:37;;;;;;;34.80;25.25;;;;;;;23.33;75.00;99779.25;5053395;28;20405;-77
2022/08/15 04:13:07;;;;;;;27.98;23.48;;;;;;;23.23;74.77;99746.03;5054473;28;20025;-77
2022/08/15 04:15:33;;;;;;;25.92;22.20;;;;;;;23.38;74.80;99770.34;5054305;28;20017;-78
2022/08/15 04:18:00;;;;;;;29.83;22.38;;;;;;;23.54;74.67;99763.44;5054285;28;20021;-78
2022/08/15 04:20:28;;;;;;;30.35;21.83;;;;;;;23.56;74.35;99761.28;5053091;28;20037;-77
2022/08/15 04:22:53;;;;;;;27.55;21.67;;;;;;;23.55;73.95;99751.38;5054200;28;20048;-78
2022/08/15 04:25:33;;;;;;;26.00;22.35;;;;;;;23.63;73.92;99751.91;5054245;28;20112;-78
2022/08/15 04:28:02;;;;;;;30.60;20.75;;;;;;;23.61;73.69;99754.03;5052764;28;20029;-78
2022/08/15 04:30:32;;;;;;;26.27;21.27;;;;;;;23.69;73.42;99745.50;5053065;28;20029;-78
2022/08/15 04:33:20;;;;;;;23.88;20.20;;;;;;;23.81;72.98;99754.63;5054177;28;20025;-78
2022/08/15 04:36:00;;;;;;;25.17;20.50;;;;;;;23.90;72.86;99749.66;5054274;28;20094;-77
2022/08/15 04:38:26;;;;;;;28.58;20.80;;;;;;;23.91;72.35;99751.34;5054027;28;20108;-78
2022/08/15 04:40:57;;;;;;;27.25;21.02;;;;;;;23.96;72.46;99745.13;5054097;28;20120;-78
2022/08/15 04:43:23;;;;;;;25.55;22.02;;;;;;;23.95;72.46;99744.28;5052736;28;20025;-77
2022/08/15 04:45:49;;;;;;;31.05;21.85;;;;;;;23.98;72.16;99749.31;5053980;28;20037;-78
2022/08/15 04:48:17;;;;;;;26.17;21.95;;;;;;;23.97;72.53;99747.66;5053789;28;20032;-76
2022/08/15 04:50:45;;;;;;;30.10;20.75;;;;;;;23.99;72.03;99751.00;5053691;28;20075;-76
2022/08/15 04:53:12;;;;;;;36.10;23.33;;;;;;;24.07;72.30;99755.31;5053554;28;20563;-75
2022/08/15 04:55:43;;;;;;;33.08;21.85;;;;;;;24.12;71.79;99755.50;5052302;28;20033;-76
2022/08/15 04:58:12;;;;;;;31.40;22.90;;;;;;;24.18;71.52;99754.56;5052548;28;20028;-76
2022/08/15 05:00:40;;;;;;;29.40;21.95;;;;;;;24.21;71.09;99743.94;5035756;28;20060;-76
2022/08/15 05:03:06;;;;;;;25.58;20.38;;;;;;;24.26;70.85;99745.97;5053350;28;20080;-75
2022/08/15 05:05:36;;;;;;;35.75;20.33;;;;;;;24.17;71.33;99736.38;5052687;28;20025;-76
2022/08/15 05:08:02;;;;;;;25.80;20.80;;;;;;;24.15;71.41;99733.91;5051423;28;20037;-75
2022/08/15 05:10:28;;;;;;;27.98;20.55;;;;;;;24.22;71.25;99739.25;5052142;28;20025;-78
2022/08/15 05:12:54;;;;;;;30.48;19.00;;;;;;;24.25;70.88;99739.63;5052565;28;20025;-75
2022/08/15 05:15:21;;;;;;;26.30;18.88;;;;;;;24.29;71.02;99742.75;5050766;28;20033;-75
2022/08/15 05:17:49;;;;;;;32.25;18.70;;;;;;;24.37;70.45;99740.50;5052121;28;20032;-77
2022/08/15 05:20:17;;;;;;;26.90;16.00;;;;;;;24.45;70.03;99739.34;5052028;28;20028;-79
2022/08/15 05:22:54;;;;;;;24.08;15.32;;;;;;;24.45;69.66;99739.34;5050940;28;20060;-78
2022/08/15 05:25:21;;;;;;;21.33;16.27;;;;;;;24.47;68.95;99745.41;5051653;28;20021;-79
2022/08/15 05:27:47;;;;;;;26.60;16.48;;;;;;;24.28;69.06;99721.84;5052853;28;20494;-82
2022/08/15 05:30:13;;;;;;;22.20;16.15;;;;;;;24.31;69.33;99735.94;5054016;28;20040;-80
2022/08/15 05:32:39;;;;;;;23.48;16.23;;;;;;;24.33;69.78;99741.22;5053320;28;20029;-80
2022/08/15 05:35:06;;;;;;;25.00;16.23;;;;;;;24.18;69.48;99708.69;5052128;28;20078;-83
2022/08/15 05:37:32;;;;;;;28.83;16.20;;;;;;;24.42;69.25;99738.97;5052805;28;20020;-76
2022/08/15 05:39:58;;;;;;;19.50;14.45;;;;;;;24.51;68.95;99737.53;5050060;28;20471;-77
2022/08/15 05:42:27;;;;;;;22.08;15.85;;;;;;;24.51;68.70;99740.28;5051807;28;20031;-77
2022/08/15 05:45:06;;;;;;;24.48;16.38;;;;;;;24.47;68.84;99748.16;5051595;28;20040;-75
2022/08/15 05:47:32;;;;;;;22.27;16.77;;;;;;;24.52;68.87;99753.81;5051236;28;20037;-75
2022/08/15 05:50:37;;;;;;;26.60;17.95;;;;;;;24.50;68.70;99747.69;5050207;28;20474;-77
2022/08/15 05:53:18;;;;;;;30.85;18.92;;;;;;;24.46;68.53;99745.66;5051117;28;20037;-76
2022/08/15 05:55:47;;;;;;;23.30;19.70;;;;;;;24.38;69.11;99744.09;5051410;28;20033;-75
2022/08/15 05:58:26;;;;;;;28.25;20.13;;;;;;;24.39;69.48;99745.78;5051500;28;20417;-77
2022/08/15 06:01:04;;;;;;;28.63;19.20;;;;;;;24.30;69.69;99730.69;5051257;28;20486;-77
2022/08/15 06:03:34;;;;;;;28.08;20.50;;;;;;;24.36;70.05;99741.59;5050376;28;20037;-77
2022/08/15 06:06:07;;;;;;;29.27;20.73;;;;;;;24.35;69.97;99739.06;5049019;28;20025;-77
2022/08/15 06:08:36;;;;;;;40.22;19.52;;;;;;;24.37;69.95;99736.94;5048148;28;20040;-78
2022/08/15 06:11:08;;;;;;;34.08;17.40;;;;;;;24.36;69.88;99740.75;5049270;28;20021;-77
2022/08/15 06:13:57;;;;;;;30.30;18.13;;;;;;;24.29;69.73;99751.00;5049147;28;20021;-77
2022/08/15 06:16:33;;;;;;;32.28;18.58;;;;;;;24.34;69.84;99751.16;5047604;28;20021;-77
2022/08/15 06:19:05;;;;;;;29.92;17.45;;;;;;;24.33;69.61;99747.56;5032498;28;20063;-77
2022/08/15 06:21:56;;;;;;;28.63;16.20;;;;;;;24.48;69.48;99747.09;5048847;28;20040;-77
2022/08/15 06:24:58;;;;;;;45.10;18.30;;;;;;;24.58;69.37;99747.38;5045943;28;20032;-77
2022/08/15 06:27:37;;;;;;;23.90;16.30;;;;;;;24.78;68.99;99761.59;5039902;28;20421;-78
2022/08/15 06:30:19;;;;;;;23.75;15.98;;;;;;;24.97;67.65;99767.03;5049305;28;20029;-77
2022/08/15 06:32:53;;;;;;;27.38;15.98;;;;;;;25.04;67.41;99759.50;5050275;28;20562;-77
2022/08/15 06:35:30;;;;;;;25.42;14.82;;;;;;;25.20;67.19;99772.50;5051660;28;20574;-78
2022/08/15 06:38:19;;;;;;;19.88;15.18;;;;;;;25.31;66.66;99771.69;5048752;28;20097;-74
2022/08/15 06:40:58;;;;;;;20.55;14.73;;;;;;;25.38;66.07;99770.47;5049725;28;20025;-76
2022/08/15 06:43:24;;;;;;;28.70;16.63;;;;;;;25.36;65.45;99774.53;5050536;28;20025;-77
2022/08/15 06:45:55;;;;;;;26.95;15.48;;;;;;;25.40;66.03;99781.25;5050170;28;20108;-76
2022/08/15 06:48:29;;;;;;;22.52;16.17;;;;;;;25.44;65.85;99787.97;5048735;28;20052;-76
2022/08/15 06:50:59;;;;;;;30.08;15.82;;;;;;;25.43;65.88;99797.28;5047944;28;20068;-76
2022/08/15 06:53:53;;;;;;;25.85;16.25;;;;;;;25.43;65.63;99797.28;5050484;28;20241;-76
2022/08/15 06:56:28;;;;;;;24.42;17.30;;;;;;;25.44;65.78;99788.78;5042960;28;20091;-76
2022/08/15 06:59:17;;;;;;;22.08;16.88;;;;;;;25.47;65.44;99792.13;5050132;28;20052;-75
2022/08/15 07:02:01;;;;;;;30.30;16.45;;;;;;;25.52;65.68;99787.59;5050179;28;20031;-75
2022/08/15 07:04:33;;;;;;;22.50;15.05;;;;;;;25.50;65.72;99787.03;5050091;28;20478;-75
2022/08/15 07:07:21;;;;;;;30.10;16.85;;;;;;;25.65;65.08;99778.25;5050070;28;20029;-76
2022/08/15 07:09:52;;;;;;;21.45;15.27;;;;;;;25.80;64.94;99781.31;5049645;28;20040;-75
2022/08/15 07:12:33;;;;;;;23.73;16.90;;;;;;;25.94;64.00;99772.50;5049797;28;20124;-76
2022/08/15 07:15:25;;;;;;;32.17;17.50;;;;;;;25.92;63.67;99791.22;5052193;28;20063;-75
2022/08/15 07:18:03;;;;;;;28.67;16.60;;;;;;;26.09;63.56;99796.78;5039399;28;20041;-75
2022/08/15 07:20:28;;;;;;;24.50;15.55;;;;;;;26.20;63.04;99792.34;5054072;28;20051;-75
2022/08/15 07:22:54;;;;;;;24.85;15.85;;;;;;;26.33;62.84;99781.00;5054156;28;20029;-76
2022/08/15 07:25:28;;;;;;;29.50;17.55;;;;;;;26.48;62.36;99790.38;5053813;28;20040;-76
2022/08/15 07:28:03;;;;;;;22.15;14.13;;;;;;;26.56;61.77;99789.16;5053618;28;20121;-76
2022/08/15 07:31:05;;;;;;;24.52;15.70;;;;;;;26.57;61.62;99790.81;5053699;28;20032;-76
2022/08/15 07:33:34;;;;;;;22.45;13.98;;;;;;;26.64;61.38;99798.91;5052847;28;20127;-76
2022/08/15 07:36:28;;;;;;;22.17;13.63;;;;;;;26.65;60.75;99795.94;5053404;28;20033;-77
2022/08/15 07:38:55;;;;;;;23.85;15.70;;;;;;;26.63;60.57;99787.06;5053275;28;20052;-75
2022/08/15 07:41:30;;;;;;;22.40;15.32;;;;;;;26.71;60.67;99794.94;5052435;28;20021;-75
2022/08/15 07:44:18;;;;;;;23.85;16.15;;;;;;;26.78;60.71;99801.13;5053843;28;20032;-75
2022/08/15 07:46:56;;;;;;;24.35;15.90;;;;;;;26.87;59.90;99809.84;5053548;28;20053;-78
2022/08/15 07:49:28;;;;;;;22.45;14.13;;;;;;;26.93;59.66;99808.84;5054051;28;20025;-78
2022/08/15 07:52:03;;;;;;;31.65;14.30;;;;;;;27.02;59.31;99808.19;5053660;28;20474;-78
2022/08/15 07:54:30;;;;;;;19.02;14.00;;;;;;;27.00;59.58;99799.28;5053646;28;20032;-75
2022/08/15 07:57:00;;;;;;;18.45;14.38;;;;;;;27.06;59.74;99802.16;5052138;28;20055;-74
2022/08/15 07:59:37;;;;;;;26.95;15.35;;;;;;;27.18;59.37;99808.41;5052215;28;20509;-74
2022/08/15 08:02:22;;;;;;;18.42;12.98;;;;;;;27.18;58.98;99811.19;5053492;28;20040;-74
2022/08/15 08:04:48;;;;;;;24.77;14.68;;;;;;;27.13;59.47;99816.59;5053689;28;20107;-74
2022/08/15 08:07:42;;;;;;;21.90;14.70;;;;;;;27.06;59.57;99818.72;5051915;28;20036;-74
2022/08/15 08:10:31;;;;;;;22.63;13.48;;;;;;;27.10;59.45;99806.91;5053111;28;20043;-73
2022/08/15 08:13:06;;;;;;;16.42;13.13;;;;;;;27.06;59.23;99816.81;5053258;28;20087;-74
2022/08/15 08:15:50;;;;;;;23.40;14.05;;;;;;;27.12;59.05;99814.94;5051818;28;20043;-74
2022/08/15 08:18:35;;;;;;;20.40;13.95;;;;;;;27.11;59.15;99816.03;5051900;28;20090;-74
2022/08/15 08:21:05;;;;;;;26.23;13.43;;;;;;;27.22;59.23;99817.84;5053137;28;20115;-73
2022/08/15 08:23:34;;;;;;;18.45;13.15;;;;;;;27.27;58.23;99810.50;5051830;28;20055;-73
2022/08/15 08:26:27;;;;;;;19.60;13.90;;;;;;;27.22;58.37;99813.16;5052580;28;20048;-74
2022/08/15 08:29:11;;;;;;;22.48;15.68;;;;;;;27.29;58.50;99830.41;5051743;28;20040;-73
2022/08/15 08:31:37;;;;;;;21.02;14.48;;;;;;;27.36;58.59;99820.03;5052768;28;20039;-73
2022/08/15 08:34:35;;;;;;;22.38;15.88;;;;;;;27.36;58.46;99810.91;5051599;28;20108;-73
2022/08/15 08:37:15;;;;;;;24.45;15.98;;;;;;;27.43;58.07;99811.59;5052813;28;20032;-73
2022/08/15 08:41:24;;;;;;;30.55;14.98;;;;;;;27.35;58.34;99800.94;5051339;28;20482;-73
2022/08/15 08:43:00;;;;;;;20.42;13.48;;;;;;;27.33;58.24;99786.56;5052840;28;20048;-73
2022/08/15 08:45:46;;;;;;;18.45;11.73;;;;;;;27.44;57.66;99796.69;5051425;28;20048;-76
2022/08/15 08:48:32;;;;;;;16.27;11.90;;;;;;;27.47;57.67;99790.63;5052291;28;20044;-75
2022/08/15 08:51:14;;;;;;;19.25;10.75;;;;;;;27.52;57.15;99774.16;5051173;28;20116;-74
2022/08/15 08:54:06;;;;;;;14.52;11.07;;;;;;;27.73;56.84;99770.56;5051138;28;20135;-74
2022/08/15 08:56:40;;;;;;;14.95;9.95;;;;;;;27.78;56.51;99778.91;5051795;28;20091;-74
2022/08/15 08:59:22;;;;;;;18.67;11.50;;;;;;;27.81;56.30;99761.81;5052440;28;20039;-74
2022/08/15 09:01:56;;;;;;;15.80;10.70;;;;;;;27.93;56.08;99776.31;5052262;28;20391;-75
2022/08/15 09:04:29;;;;;;;16.00;11.10;;;;;;;28.08;55.94;99782.06;5052408;28;20732;-75
2022/08/15 09:06:56;;;;;;;16.38;12.93;;;;;;;28.10;55.32;99790.09;5051856;28;20025;-75
2022/08/15 09:09:28;;;;;;;24.45;13.23;;;;;;;28.12;55.83;99789.84;5050611;28;20059;-74
2022/08/15 09:14:52;;;;;;;20.02;13.30;;;;;;;28.02;55.32;99773.94;5052224;28;20036;-76
2022/08/15 09:17:21;;;;;;;19.60;13.25;;;;;;;28.07;55.14;99782.34;5017391;28;20108;-77
2022/08/15 09:20:12;;;;;;;25.13;15.77;;;;;;;27.92;55.03;99782.94;5052130;28;20025;-75
2022/08/15 09:22:39;;;;;;;19.52;15.77;;;;;;;27.75;55.88;99784.94;5051464;28;20037;-73
2022/08/15 09:25:06;;;;;;;22.75;15.00;;;;;;;27.77;56.24;99774.47;5050184;28;20040;-75
2022/08/15 09:27:44;;;;;;;22.05;15.60;;;;;;;27.83;55.79;99775.34;5050499;28;20032;-74
2022/08/15 09:30:12;;;;;;;21.75;15.80;;;;;;;27.83;55.53;99791.94;5051643;28;20462;-75
2022/08/15 09:33:05;;;;;;;20.40;14.52;;;;;;;27.76;55.40;99786.63;5051489;28;20028;-74
2022/08/15 09:35:39;;;;;;;35.58;15.35;;;;;;;27.75;55.58;99784.09;5052316;28;20398;-75
2022/08/15 09:38:11;;;;;;;19.02;14.68;;;;;;;27.75;54.51;99790.47;5051260;28;20017;-74
2022/08/15 09:41:20;;;;;;;30.75;17.58;;;;;;;27.78;54.88;99776.16;5051745;28;20029;-73
2022/08/15 09:44:20;;;;;;;15.15;10.63;;;;;;;27.82;54.36;99774.53;5036761;28;20040;-73
2022/08/15 09:47:21;;;;;;;12.25;10.45;;;;;;;27.89;54.41;99766.88;5050102;28;20796;-75
2022/08/15 09:49:49;;;;;;;16.50;11.15;;;;;;;27.96;54.82;99773.03;5049044;28;20041;-76
2022/08/15 09:52:48;;;;;;;27.40;11.57;;;;;;;28.20;54.01;99764.47;5052282;28;20047;-75
2022/08/15 09:55:32;;;;;;;14.55;11.48;;;;;;;28.24;53.83;99755.41;5051707;28;20450;-76
2022/08/15 09:58:20;;;;;;;17.73;11.52;;;;;;;28.38;53.16;99769.63;5051231;28;20421;-75
2022/08/15 10:01:21;;;;;;;21.75;12.18;;;;;;;28.49;52.53;99768.66;5050159;28;20045;-79
2022/08/15 10:03:57;;;;;;;15.30;12.40;;;;;;;28.59;52.89;99774.28;5050037;28;20021;-81
2022/08/15 10:06:25;;;;;;;22.77;13.63;;;;;;;28.59;51.97;99779.81;5051479;28;20017;-78
2022/08/15 10:08:53;;;;;;;14.20;12.43;;;;;;;28.61;52.27;99784.00;5051080;28;20695;-79
2022/08/15 10:11:41;;;;;;;19.73;12.15;;;;;;;28.72;51.52;99784.09;5051513;28;20089;-80
2022/08/15 10:14:25;;;;;;;15.70;11.73;;;;;;;28.72;51.00;99782.16;5051796;28;20044;-80
2022/08/15 10:16:59;;;;;;;15.63;10.90;;;;;;;28.78;50.99;99764.50;5050863;28;20031;-80
2022/08/15 10:19:33;;;;;;;15.07;10.30;;;;;;;29.05;50.52;99779.09;5049755;28;20435;-79
2022/08/15 10:22:22;;;;;;;12.52;11.00;;;;;;;29.19;50.03;99768.41;5051752;28;20036;-79
2022/08/15 10:25:17;;;;;;;19.52;11.60;;;;;;;29.41;49.77;99776.63;5049853;28;20391;-79
2022/08/15 10:28:14;;;;;;;12.93;11.45;;;;;;;29.61;49.66;99785.03;5050967;28;20116;-80
2022/08/15 10:30:46;;;;;;;11.18;9.88;;;;;;;29.96;48.81;99785.22;5051312;28;20140;-78
2022/08/15 10:33:33;;;;;;;17.38;12.73;;;;;;;30.10;48.60;99786.38;5051254;28;20029;-80
2022/08/15 10:36:13;;;;;;;17.20;13.07;;;;;;;30.06;48.69;99789.97;5051155;28;20122;-79
2022/08/15 10:39:09;;;;;;;23.35;13.30;;;;;;;29.95;49.21;99789.09;5051055;28;20113;-79
2022/08/15 10:41:53;;;;;;;18.33;12.52;;;;;;;29.87;48.44;99791.56;5050728;28;20430;-78
2022/08/15 10:44:47;;;;;;;15.93;11.13;;;;;;;29.78;47.31;99791.22;5050817;28;20025;-79
2022/08/15 10:47:25;;;;;;;19.98;11.93;;;;;;;29.59;48.20;99796.41;5052556;28;20486;-79
2022/08/15 10:49:50;;;;;;;14.77;11.10;;;;;;;29.58;48.03;99786.41;5050852;28;20043;-78
2022/08/15 10:52:40;;;;;;;17.40;12.07;;;;;;;29.67;48.23;99781.16;5050440;28;20104;-79
2022/08/15 10:55:20;;;;;;;14.65;10.65;;;;;;;29.89;48.17;99778.25;5050807;28;20109;-78
2022/08/15 10:58:03;;;;;;;14.20;10.82;;;;;;;30.12;47.81;99789.69;5050824;28;20111;-79
2022/08/15 11:00:51;;;;;;;13.88;11.50;;;;;;;30.27;47.34;99793.63;5046998;28;20040;-80
2022/08/15 11:03:38;;;;;;;21.00;11.60;;;;;;;30.31;47.30;99794.72;5050871;28;20044;-80
2022/08/15 11:06:13;;;;;;;13.45;11.60;;;;;;;30.36;46.83;99798.38;5051450;28;20108;-80
2022/08/15 11:08:53;;;;;;;16.75;11.32;;;;;;;30.18;46.00;99799.69;5050861;28;20090;-79
2022/08/15 11:11:23;;;;;;;14.38;9.95;;;;;;;30.13;45.67;99791.38;5052180;28;20094;-80
2022/08/15 11:13:58;;;;;;;17.02;10.95;;;;;;;30.24;45.99;99792.25;5052076;28;20028;-79
2022/08/15 11:16:37;;;;;;;18.92;10.65;;;;;;;30.43;46.13;99787.00;5050744;28;20053;-79
2022/08/15 11:19:36;;;;;;;22.38;11.38;;;;;;;30.55;45.72;99798.72;5046301;28;20024;-81
2022/08/15 11:22:04;;;;;;;15.07;10.70;;;;;;;30.52;45.30;99791.75;5051080;28;20508;-80
2022/08/15 11:24:39;;;;;;;12.95;9.88;;;;;;;30.61;45.44;99801.19;5051836;28;20676;-80
2022/08/15 11:27:16;;;;;;;14.15;10.85;;;;;;;30.55;45.62;99791.19;5050277;28;20036;-79
2022/08/15 11:29:44;;;;;;;13.75;10.68;;;;;;;30.52;45.47;99783.44;5051786;28;20459;-80
2022/08/15 11:32:24;;;;;;;21.73;10.18;;;;;;;30.69;45.44;99791.50;5050434;28;20021;-80
2022/08/15 11:34:51;;;;;;;11.68;10.02;;;;;;;31.01;45.34;99800.41;5051489;28;20021;-80
2022/08/15 11:37:37;;;;;;;17.17;9.82;;;;;;;31.32;44.87;99794.81;5050517;28;20047;-80
2022/08/15 11:40:41;;;;;;;13.68;11.35;;;;;;;31.51;44.02;99795.94;5050339;28;20442;-80
2022/08/15 11:43:15;;;;;;;23.08;10.40;;;;;;;31.45;44.17;99797.03;5033452;28;20418;-80
2022/08/15 11:45:45;;;;;;;14.75;10.15;;;;;;;31.39;44.25;99789.81;5051619;28;20036;-80
2022/08/15 11:48:17;;;;;;;11.75;9.35;;;;;;;31.51;44.07;99798.69;5051400;28;20098;-78
2022/08/15 11:51:14;;;;;;;15.55;11.07;;;;;;;31.37;43.42;99778.16;5050521;28;20029;-79
2022/08/15 11:54:18;;;;;;;12.25;9.90;;;;;;;31.13;43.61;99784.28;5043354;28;20398;-80